createdAt,value
2019-04-16T07:16:30.599Z,33.71
2019-04-16T07:17:25.586Z,33.05
2019-04-16T07:18:25.590Z,33.05
2019-04-16T07:19:25.592Z,33.44
2019-04-16T07:20:25.596Z,32.09
2019-04-16T07:21:25.599Z,31.03
2019-04-16T07:22:25.602Z,32.56
2019-04-16T07:23:28.003Z,32.65
2019-04-16T07:24:29.908Z,33.02
2019-04-16T07:25:30.567Z,33.89
2019-04-16T07:26:25.725Z,33.31
2019-04-16T07:27:25.823Z,33.12
2019-04-16T07:28:28.881Z,32.64
2019-04-16T07:29:25.842Z,32.54
2019-04-16T07:30:25.727Z,32.73
2019-04-16T07:31:36.420Z,33.02
2019-04-16T07:32:25.758Z,33.12
2019-04-16T07:33:25.658Z,32.75
2019-04-16T07:34:25.657Z,32.26
2019-04-16T07:35:27.157Z,32.36
2019-04-16T07:36:27.892Z,33.13
2019-04-16T07:37:25.679Z,33.13
2019-04-16T07:38:35.088Z,32.94
2019-04-16T07:39:36.835Z,32.38
2019-04-16T07:40:25.701Z,31.9
2019-04-16T07:41:25.690Z,31.99
2019-04-16T07:42:28.833Z,31.12
2019-04-16T07:43:30.894Z,31.99
2019-04-16T07:44:25.711Z,32.09
2019-04-16T07:45:25.718Z,31.81
2019-04-16T07:46:25.721Z,31.24
2019-04-16T07:47:25.725Z,30.46
2019-04-16T07:48:26.038Z,30.76
2019-04-16T07:49:28.580Z,30.76
2019-04-16T07:50:25.747Z,29.77
2019-04-16T07:51:25.753Z,29.68
2019-04-16T07:52:25.759Z,30.74
2019-04-16T07:53:25.765Z,31.11
2019-04-16T07:54:25.775Z,31.3
2019-04-16T07:55:26.500Z,31.49
2019-04-16T07:56:25.791Z,31.78
2019-04-16T07:57:25.793Z,31.78
2019-04-16T07:58:25.802Z,31.01
2019-04-16T07:59:25.809Z,31.3
2019-04-16T08:00:25.814Z,31.59
2019-04-16T08:01:25.819Z,31.59
2019-04-16T08:02:25.859Z,31.03
2019-04-16T08:03:29.154Z,30.07
2019-04-16T08:04:35.194Z,30.16
2019-04-16T08:05:27.756Z,29.87
2019-04-16T08:06:25.853Z,29.87
2019-04-16T08:07:25.858Z,30.35
2019-04-16T08:08:27.644Z,30.82
2019-04-16T08:09:28.621Z,30.73
2019-04-16T08:10:25.882Z,30.82
2019-04-16T08:11:25.656Z,30.61
2019-04-16T08:12:33.095Z,31.29
2019-04-16T08:13:25.894Z,31.85
2019-04-16T08:14:25.902Z,32.23
2019-04-16T08:15:25.910Z,31.95
2019-04-16T08:16:25.909Z,31.85
2019-04-16T08:17:25.916Z,32.12
2019-04-16T08:18:26.045Z,32.79
2019-04-16T08:19:38.958Z,32.97
2019-04-16T08:20:25.927Z,32.87
2019-04-16T08:21:25.928Z,33.74
2019-04-16T08:22:26.071Z,33.93
2019-04-16T08:23:25.963Z,32.76
2019-04-16T08:24:27.729Z,33.05
2019-04-16T08:25:25.946Z,33.05
2019-04-16T08:26:25.947Z,32.93
2019-04-16T08:27:25.729Z,33.01
2019-04-16T08:28:25.956Z,33.4
2019-04-16T08:29:28.868Z,34.34
2019-04-16T08:30:25.960Z,34.63
2019-04-16T08:31:25.958Z,35.96
2019-04-16T08:32:28.218Z,36.32
2019-04-16T08:33:30.818Z,36.71
2019-04-16T08:34:25.964Z,36.71
2019-04-16T08:35:25.959Z,36.69
2019-04-16T08:36:25.959Z,37.07
2019-04-16T08:37:25.959Z,37.63
2019-04-16T08:38:28.485Z,37.82
2019-04-16T08:39:25.958Z,38.68
2019-04-16T08:40:25.951Z,39.52
2019-04-16T08:41:25.953Z,40
2019-04-16T08:42:29.543Z,40.09
2019-04-16T08:43:26.596Z,40.29
2019-04-16T08:44:25.947Z,40.26
2019-04-16T08:45:25.941Z,40.55
2019-04-16T08:46:28.138Z,40.84
2019-04-16T08:47:25.930Z,40.46
2019-04-16T08:48:25.682Z,40.55
2019-04-16T08:49:25.917Z,40.75
2019-04-16T08:50:29.138Z,40.72
2019-04-16T08:51:36.891Z,40.92
2019-04-16T08:52:25.905Z,41.3
2019-04-16T08:53:25.902Z,41.11
2019-04-16T08:54:25.896Z,40.44
2019-04-16T08:55:26.594Z,40.44
2019-04-16T08:56:25.886Z,40.52
2019-04-16T08:57:25.880Z,40.53
2019-04-16T08:58:25.875Z,40.52
2019-04-16T08:59:25.868Z,40.52
2019-04-16T09:00:25.863Z,40.61
2019-04-16T09:01:26.073Z,40.42
2019-04-16T09:02:29.603Z,40.32
2019-04-16T09:03:26.755Z,40.42
2019-04-16T09:04:25.842Z,41.28
2019-04-16T09:05:25.832Z,41.38
2019-04-16T09:06:25.899Z,42.14
2019-04-16T09:07:25.822Z,41.75
2019-04-16T09:08:25.817Z,42.14
2019-04-16T09:09:27.748Z,42.24
2019-04-16T09:10:29.906Z,41.56
2019-04-16T09:11:28.412Z,40.8
2019-04-16T09:12:25.907Z,40.72
2019-04-16T09:13:25.786Z,40.52
2019-04-16T09:14:28.232Z,40.52
2019-04-16T09:15:29.307Z,40.03
2019-04-16T09:16:25.762Z,40.03
2019-04-16T09:17:25.755Z,39.65
2019-04-16T09:18:25.750Z,39.08
2019-04-16T09:19:25.746Z,38.32
2019-04-16T09:20:25.946Z,38.51
2019-04-16T09:21:27.895Z,38.98
2019-04-16T09:22:25.489Z,39.08
2019-04-16T09:23:29.251Z,38.41
2019-04-16T09:24:25.735Z,38.79
2019-04-16T09:25:25.705Z,38.6
2019-04-16T09:26:26.392Z,38.7
2019-04-16T09:27:34.091Z,39.65
2019-04-16T09:28:31.038Z,38.91
2019-04-16T09:29:25.689Z,39
2019-04-16T09:30:25.671Z,38.34
2019-04-16T09:31:25.671Z,38.43
2019-04-16T09:32:29.714Z,37.76
2019-04-16T09:33:25.651Z,38.05
2019-04-16T09:34:25.664Z,38.14
2019-04-16T09:35:25.659Z,38.24
2019-04-16T09:36:25.638Z,37.66
2019-04-16T09:37:28.533Z,37.66
2019-04-16T09:38:25.621Z,37.85
2019-04-16T09:39:25.615Z,38.14
2019-04-16T09:40:25.606Z,38.14
2019-04-16T09:41:25.604Z,38.62
2019-04-16T09:42:25.598Z,38.14
2019-04-16T09:43:25.585Z,38.14
2019-04-16T09:44:29.489Z,37.66
2019-04-16T09:45:27.417Z,37.48
2019-04-16T09:46:52.274Z,37.38
2019-04-16T09:47:25.561Z,36.92
2019-04-16T09:48:25.555Z,37.09
2019-04-16T09:49:25.590Z,37.28
2019-04-16T09:50:25.543Z,37.38
2019-04-16T09:51:28.208Z,37.76
2019-04-16T09:52:26.724Z,37.48
2019-04-16T09:53:39.968Z,38.34
2019-04-16T09:54:25.515Z,38.24
2019-04-16T09:55:25.508Z,37.85
2019-04-16T09:56:30.717Z,37.76
2019-04-16T09:57:30.828Z,37.66
2019-04-16T09:58:25.489Z,38.14
2019-04-16T09:59:25.630Z,38.14
2019-04-16T10:00:25.478Z,37.95
2019-04-16T10:01:25.475Z,37.95
2019-04-16T10:02:25.462Z,36.99
2019-04-16T10:03:28.129Z,36.33
2019-04-16T10:04:25.454Z,36.04
2019-04-16T10:05:26.443Z,35.66
2019-04-16T10:06:25.444Z,35.66
2019-04-16T10:07:25.450Z,35.37
2019-04-16T10:08:25.637Z,36.04
2019-04-16T10:09:25.670Z,35.37
2019-04-16T10:10:29.785Z,35.57
2019-04-16T10:11:25.440Z,35.47
2019-04-16T10:12:25.398Z,35.66
2019-04-16T10:13:35.985Z,35.85
2019-04-16T10:14:25.385Z,36.33
2019-04-16T10:15:25.532Z,36.33
2019-04-16T10:16:25.410Z,36.43
2019-04-16T10:17:25.372Z,35.47
2019-04-16T10:18:25.515Z,35.57
2019-04-16T10:19:25.355Z,35.85
2019-04-16T10:20:25.360Z,36.04
2019-04-16T10:21:28.278Z,36.04
2019-04-16T10:22:25.331Z,35.85
2019-04-16T10:23:25.324Z,35.37
2019-04-16T10:24:25.588Z,35.28
2019-04-16T10:25:25.336Z,35.08
2019-04-16T10:26:25.591Z,34.22
2019-04-16T10:27:25.302Z,34.51
2019-04-16T10:28:25.370Z,34.22
2019-04-16T10:29:25.302Z,34.99
2019-04-16T10:30:25.449Z,35.08
2019-04-16T10:31:25.286Z,34.99
2019-04-16T10:32:25.286Z,35.08
2019-04-16T10:33:25.260Z,34.89
2019-04-16T10:34:25.266Z,35.47
2019-04-16T10:35:25.261Z,35.28
2019-04-16T10:36:25.255Z,35.28
2019-04-16T10:37:25.236Z,35.57
2019-04-16T10:38:25.229Z,36.14
2019-04-16T10:39:25.267Z,36.43
2019-04-16T10:40:25.220Z,36.15
2019-04-16T10:41:25.248Z,36.25
2019-04-16T10:42:25.210Z,36.15
2019-04-16T10:43:25.215Z,35.96
2019-04-16T10:44:25.209Z,34.34
2019-04-16T10:45:25.178Z,34.24
2019-04-16T10:46:25.188Z,35
2019-04-16T10:47:25.195Z,35.29
2019-04-16T10:48:25.168Z,36.43
2019-04-16T10:49:25.167Z,35.77
2019-04-16T10:50:25.147Z,35
2019-04-16T10:51:25.142Z,34.53
2019-04-16T10:52:25.141Z,34.24
2019-04-16T10:53:25.172Z,34.24
2019-04-16T10:54:25.155Z,34.43
2019-04-16T10:55:25.156Z,34.91
2019-04-16T10:56:25.108Z,35.1
2019-04-16T10:57:25.103Z,35.1
2019-04-16T10:58:25.111Z,35.1
2019-04-16T10:59:25.118Z,34.53
2019-04-16T11:00:25.078Z,34.91
2019-04-16T11:01:29.884Z,35.1
2019-04-16T11:02:25.082Z,35.39
2019-04-16T11:03:28.373Z,35.29
2019-04-16T11:04:25.071Z,35.68
2019-04-16T11:05:25.113Z,35.39
2019-04-16T11:06:25.039Z,35.29
2019-04-16T11:07:25.089Z,35.1
2019-04-16T11:08:25.068Z,35.29
2019-04-16T11:09:25.048Z,35.49
2019-04-16T11:11:25.092Z,35.96
2019-04-16T11:12:25.017Z,35.39
2019-04-16T11:13:25.098Z,35.96
2019-04-16T11:14:24.990Z,35.39
2019-04-16T11:15:25.013Z,35.77
2019-04-16T11:16:25.220Z,35.68
2019-04-16T11:17:24.981Z,36.06
2019-04-16T11:18:24.995Z,35.39
2019-04-16T11:19:24.966Z,35.86
2019-04-16T11:20:24.966Z,35.49
2019-04-16T11:21:24.961Z,35.49
2019-04-16T11:22:24.970Z,35.58
2019-04-16T11:23:24.997Z,35.1
2019-04-16T11:24:24.935Z,34.24
2019-04-16T11:25:24.916Z,34.72
2019-04-16T11:26:24.909Z,35.29
2019-04-16T11:27:24.913Z,35
2019-04-16T11:28:24.960Z,34.81
2019-04-16T11:29:24.894Z,34.43
2019-04-16T11:30:24.988Z,34.43
2019-04-16T11:31:24.923Z,34.43
2019-04-16T11:32:24.873Z,35.49
2019-04-16T11:33:27.481Z,35.31
2019-04-16T11:34:24.875Z,35.12
2019-04-16T11:36:24.869Z,35.29
2019-04-16T11:37:24.843Z,36.08
2019-04-16T11:38:24.881Z,35.88
2019-04-16T11:39:24.865Z,35.6
2019-04-16T11:40:24.900Z,35.5
2019-04-16T11:41:24.847Z,35.69
2019-04-16T11:42:24.860Z,36.08
2019-04-16T11:43:24.831Z,35.98
2019-04-16T11:44:24.841Z,35.6
2019-04-16T11:45:24.808Z,36.08
2019-04-16T11:46:24.822Z,36.46
2019-04-16T11:47:27.889Z,35.6
2019-04-16T11:48:24.795Z,36.08
2019-04-16T11:49:24.846Z,35.79
2019-04-16T11:50:24.817Z,36.08
2019-04-16T11:51:24.858Z,36.36
2019-04-16T11:52:24.775Z,35.5
2019-04-16T11:53:24.814Z,35.69
2019-04-16T11:54:24.776Z,35.6
2019-04-16T11:55:24.868Z,35.79
2019-04-16T11:56:25.266Z,35.81
2019-04-16T11:57:24.748Z,34.36
2019-04-16T11:58:24.736Z,34.47
2019-04-16T11:59:24.494Z,34.37
2019-04-16T12:00:24.742Z,33.87
2019-04-16T12:01:25.592Z,33.99
2019-04-16T12:02:24.688Z,33.87
2019-04-16T12:03:24.703Z,33.99
2019-04-16T12:04:24.682Z,33.51
2019-04-16T12:05:24.719Z,33.61
2019-04-16T12:06:31.009Z,33.61
2019-04-16T12:07:24.738Z,34.18
2019-04-16T12:08:24.688Z,34.08
2019-04-16T12:09:24.703Z,34.08
2019-04-16T12:10:24.697Z,33.89
2019-04-16T12:11:24.685Z,32.84
2019-04-16T12:12:24.698Z,32.65
2019-04-16T12:13:24.668Z,33.12
2019-04-16T12:14:34.829Z,32.55
2019-04-16T12:15:24.631Z,32.36
2019-04-16T12:17:24.689Z,32.65
2019-04-16T12:18:24.598Z,32.65
2019-04-16T12:19:24.620Z,32.65
2019-04-16T12:20:24.578Z,32.55
2019-04-16T12:21:24.601Z,32.84
2019-04-16T12:22:24.647Z,32.55
2019-04-16T12:23:24.599Z,32.75
2019-04-16T12:24:24.617Z,32.55
2019-04-16T12:25:26.553Z,32.26
2019-04-16T12:26:24.350Z,32.26
2019-04-16T12:27:24.549Z,32.17
2019-04-16T12:28:24.582Z,32.26
2019-04-16T12:29:25.649Z,32.46
2019-04-16T12:30:24.576Z,32.65
2019-04-16T12:31:24.561Z,32.17
2019-04-16T12:32:26.800Z,32.26
2019-04-16T12:33:24.688Z,32.36
2019-04-16T12:34:24.526Z,32.17
2019-04-16T12:35:24.514Z,32.36
2019-04-16T12:36:24.627Z,32.36
2019-04-16T12:37:24.575Z,32.93
2019-04-16T12:48:24.617Z,33.53
2019-04-16T12:49:24.418Z,32.95
2019-04-16T12:51:25.691Z,32.47
2019-04-16T12:52:24.864Z,32.18
2019-04-16T12:53:24.442Z,32.38
2019-04-16T12:54:27.957Z,32.47
2019-04-16T12:55:31.306Z,32.38
2019-04-16T12:57:24.391Z,32.47
2019-04-16T12:59:25.515Z,31.99
2019-04-16T13:00:31.580Z,31.9
2019-04-16T13:01:24.325Z,32.28
2019-04-16T13:02:24.322Z,32.38
2019-04-16T13:03:24.316Z,32.38
2019-04-16T13:04:24.314Z,32.47
2019-04-16T13:05:24.303Z,32.86
2019-04-16T13:06:28.670Z,32.67
2019-04-16T13:07:24.289Z,32.86
2019-04-16T13:08:24.285Z,32.65
2019-04-16T13:09:24.278Z,32.47
2019-04-16T13:10:24.272Z,32.36
2019-04-16T13:11:24.267Z,32.38
2019-04-16T13:12:24.260Z,32.67
2019-04-16T13:13:24.257Z,32.47
2019-04-16T13:14:24.247Z,32.18
2019-04-16T13:15:24.243Z,32.18
2019-04-16T13:16:24.236Z,32.46
2019-04-16T13:17:24.239Z,31.8
2019-04-16T13:18:24.223Z,32.28
2019-04-16T13:19:24.227Z,32.36
2019-04-16T13:20:28.999Z,32.17
2019-04-16T13:21:24.205Z,31.98
2019-04-16T13:26:24.179Z,31.61
2019-04-16T13:28:26.182Z,32.46
2019-04-16T13:29:28.883Z,32.28
2019-04-16T13:30:24.159Z,31.61
2019-04-16T13:31:24.147Z,30.84
2019-04-16T13:32:27.635Z,30.46
2019-04-16T13:33:24.135Z,31.12
2019-04-16T13:34:24.130Z,30.93
2019-04-16T13:35:24.130Z,31.9
2019-04-16T13:37:24.111Z,30.84
2019-04-16T13:38:24.105Z,30.83
2019-04-16T13:39:24.098Z,31.12
2019-04-16T13:40:24.111Z,31.12
2019-04-16T13:41:28.731Z,30.64
2019-04-16T13:42:24.088Z,30.44
2019-04-16T13:43:24.074Z,30.46
2019-04-16T13:44:24.069Z,30.54
2019-04-16T13:45:28.571Z,30.54
2019-04-16T13:46:28.901Z,30.84
2019-04-16T13:47:24.052Z,30.75
2019-04-16T13:48:27.200Z,31.23
2019-04-16T13:49:31.271Z,31.13
2019-04-16T13:50:24.035Z,30.75
2019-04-16T13:51:24.029Z,30.65
2019-04-16T13:52:27.618Z,30.65
2019-04-16T13:53:28.618Z,30.18
2019-04-16T13:54:27.688Z,30.08
2019-04-16T13:55:24.006Z,30.55
2019-04-16T13:56:24.015Z,30.84
2019-04-16T13:57:23.993Z,31.04
2019-04-16T13:58:23.985Z,31.02
2019-04-16T13:59:23.982Z,30.26
2019-04-16T14:00:23.988Z,30.54
2019-04-16T14:01:23.977Z,30.54
2019-04-16T14:02:23.962Z,31.3
2019-04-16T14:03:27.123Z,30.83
2019-04-16T14:04:23.949Z,31.4
2019-04-16T14:05:23.953Z,31.4
2019-04-16T14:06:23.942Z,31.4
2019-04-16T14:07:27.734Z,31.79
2019-04-16T14:08:23.931Z,31.23
2019-04-16T14:09:23.922Z,31.13
2019-04-16T14:10:23.920Z,30.55
2019-04-16T14:11:23.912Z,31.04
2019-04-16T14:12:42.907Z,30.75
2019-04-16T14:13:23.894Z,30.55
2019-04-16T14:14:25.055Z,29.88
2019-04-16T14:15:47.209Z,29.69
2019-04-16T14:16:23.881Z,29.6
2019-04-16T14:17:23.880Z,29.79
2019-04-16T14:18:24.337Z,29.5
2019-04-16T14:19:23.861Z,29.22
2019-04-16T14:20:23.854Z,29.02
2019-04-16T14:21:23.848Z,29.5
2019-04-16T14:22:24.855Z,29.39
2019-04-16T14:23:23.835Z,29.01
2019-04-16T14:24:23.866Z,29.02
2019-04-16T14:25:23.827Z,28.63
2019-04-16T14:26:23.819Z,28.55
2019-04-16T14:27:23.813Z,29.12
2019-04-16T14:28:23.806Z,29.49
2019-04-16T14:29:27.390Z,29.97
2019-04-16T14:30:23.813Z,30.26
2019-04-16T14:31:23.787Z,30.75
2019-04-16T14:32:23.781Z,31.02
2019-04-16T14:33:23.775Z,31.42
2019-04-16T14:34:23.775Z,31.69
2019-04-16T14:35:35.732Z,31.69
2019-04-16T14:36:23.758Z,31.5
2019-04-16T14:37:23.750Z,31.4
2019-04-16T14:38:23.745Z,31.32
2019-04-16T14:39:23.737Z,30.46
2019-04-16T14:40:23.733Z,30.84
2019-04-16T14:41:23.729Z,30.54
2019-04-16T14:42:25.378Z,30.93
2019-04-16T14:43:23.713Z,30.84
2019-04-16T14:44:23.707Z,31.02
2019-04-16T14:45:23.710Z,31.12
2019-04-16T14:46:28.146Z,31.21
2019-04-16T14:47:23.688Z,30.46
2019-04-16T14:48:23.683Z,30.46
2019-04-16T14:49:23.676Z,31.12
2019-04-16T14:50:26.652Z,31.21
2019-04-16T14:51:23.667Z,31.02
2019-04-16T14:52:23.658Z,30.83
2019-04-16T14:53:23.652Z,31.79
2019-04-16T14:54:23.649Z,31.3
2019-04-16T14:55:23.640Z,31.59
2019-04-16T14:56:23.402Z,31.59
2019-04-16T14:57:23.628Z,31.79
2019-04-16T14:58:23.621Z,32.36
2019-04-16T14:59:35.714Z,31.98
2019-04-16T15:00:23.371Z,31.98
2019-04-16T15:01:23.602Z,31.98
2019-04-16T15:02:23.597Z,32.17
2019-04-16T15:03:23.589Z,31.88
2019-04-16T15:04:23.586Z,32.36
2019-04-16T15:05:23.577Z,32.55
2019-04-16T15:06:23.571Z,32.55
2019-04-16T15:07:23.588Z,32.46
2019-04-16T15:08:23.560Z,31.98
2019-04-16T15:09:23.553Z,32.17
2019-04-16T15:10:23.551Z,32.26
2019-04-16T15:11:23.542Z,31.59
2019-04-16T15:12:23.539Z,31.4
2019-04-16T15:13:23.611Z,31.79
2019-04-16T15:14:26.689Z,31.5
2019-04-16T15:15:23.521Z,30.93
2019-04-16T15:16:24.819Z,31.12
2019-04-16T15:17:26.222Z,30.73
2019-04-16T15:18:26.694Z,31.98
2019-04-16T15:19:23.493Z,32.46
2019-04-16T15:20:23.485Z,32.93
2019-04-16T15:21:23.477Z,32.93
2019-04-16T15:22:23.474Z,33.99
2019-04-16T15:23:23.471Z,33.99
2019-04-16T15:24:23.472Z,33.89
2019-04-16T15:25:23.455Z,33.51
2019-04-16T15:26:23.451Z,33.7
2019-04-16T15:27:23.440Z,33.8
2019-04-16T15:28:23.437Z,34.08
2019-04-16T15:29:26.402Z,34.08
2019-04-16T15:30:28.244Z,33.61
2019-04-16T15:31:23.455Z,33.41
2019-04-16T15:32:23.409Z,33.32
2019-04-16T15:33:23.401Z,33.41
2019-04-16T15:34:23.413Z,33.51
2019-04-16T15:35:23.388Z,33.7
2019-04-16T15:36:23.386Z,33.61
2019-04-16T15:37:25.636Z,33.51
2019-04-16T15:38:23.373Z,33.61
2019-04-16T15:39:23.367Z,33.89
2019-04-16T15:40:23.359Z,32.84
2019-04-16T15:41:23.351Z,32.75
2019-04-16T15:42:23.349Z,33.12
2019-04-16T15:43:23.341Z,33.22
2019-04-16T15:44:26.113Z,32.84
2019-04-16T15:45:25.457Z,32.84
2019-04-16T15:46:28.617Z,32.84
2019-04-16T15:47:23.313Z,33.12
2019-04-16T15:48:23.308Z,32.93
2019-04-16T15:49:26.316Z,33.12
2019-04-16T15:50:23.328Z,32.65
2019-04-16T15:51:23.299Z,32.93
2019-04-16T15:52:23.285Z,32.84
2019-04-16T15:54:23.270Z,32.46
2019-04-16T15:56:23.256Z,32.07
2019-04-16T15:57:23.251Z,32.46
2019-04-16T15:58:23.241Z,32.55
2019-04-16T15:59:22.996Z,32.36
2019-04-16T16:00:23.233Z,32.84
2019-04-16T16:01:23.223Z,32.26
2019-04-16T16:02:23.217Z,32.17
2019-04-16T16:03:23.209Z,32.17
2019-04-16T16:04:24.954Z,32.06
2019-04-16T16:05:23.403Z,32.25
2019-04-16T16:06:23.193Z,32.34
2019-04-16T16:07:26.763Z,32.25
2019-04-16T16:08:23.178Z,32.34
2019-04-16T16:09:23.168Z,32.25
2019-04-16T16:10:23.164Z,32.15
2019-04-16T16:11:23.157Z,32.44
2019-04-16T16:12:25.301Z,32.15
2019-04-16T16:13:28.331Z,32.82
2019-04-16T16:14:23.136Z,32.54
2019-04-16T16:15:23.134Z,32.34
2019-04-16T16:16:23.124Z,32.34
2019-04-16T16:17:25.508Z,32.25
2019-04-16T16:18:23.115Z,31.77
2019-04-16T16:19:23.103Z,31.96
2019-04-16T16:20:23.099Z,31.87
2019-04-16T16:21:23.093Z,32.15
2019-04-16T16:22:23.086Z,32.15
2019-04-16T16:23:23.210Z,32.34
2019-04-16T16:24:23.072Z,32.54
2019-04-16T16:25:23.064Z,32.34
2019-04-16T16:26:23.069Z,32.15
2019-04-16T16:27:23.052Z,32.25
2019-04-16T16:28:23.046Z,32.34
2019-04-16T16:29:23.039Z,32.34
2019-04-16T16:30:23.032Z,32.34
2019-04-16T16:31:23.023Z,32.63
2019-04-16T16:32:23.025Z,32.63
2019-04-16T16:33:23.016Z,32.34
2019-04-16T16:34:23.011Z,32.15
2019-04-16T16:35:22.998Z,32.25
2019-04-16T16:36:22.993Z,32.44
2019-04-16T16:37:22.987Z,32.44
2019-04-16T16:38:23.494Z,32.73
2019-04-16T16:39:22.973Z,32.25
2019-04-16T16:40:22.968Z,32.44
2019-04-16T16:41:22.962Z,32.44
2019-04-16T16:42:22.951Z,32.92
2019-04-16T16:43:22.943Z,32.82
2019-04-16T16:44:22.939Z,32.54
2019-04-16T16:45:22.936Z,32.25
2019-04-16T16:46:22.934Z,32.25
2019-04-16T16:47:22.919Z,32.25
2019-04-16T16:48:24.520Z,32.15
2019-04-16T16:49:22.906Z,32.44
2019-04-16T16:50:22.898Z,32.82
2019-04-16T16:51:25.468Z,32.54
2019-04-16T16:52:22.891Z,32.44
2019-04-16T16:53:22.884Z,32.9
2019-04-16T16:54:22.870Z,32.81
2019-04-16T16:55:22.870Z,32.81
2019-04-16T16:56:24.141Z,33.09
2019-04-16T16:57:22.853Z,33.19
2019-04-16T16:58:24.142Z,33.38
2019-04-16T16:59:22.838Z,33.48
2019-04-16T17:00:23.793Z,33.67
2019-04-16T17:01:22.822Z,34.05
2019-04-16T17:02:22.820Z,34.05
2019-04-16T17:03:22.812Z,34.43
2019-04-16T17:04:22.807Z,34.43
2019-04-16T17:05:22.795Z,34.72
2019-04-16T17:06:22.791Z,34.81
2019-04-16T17:07:22.781Z,35.1
2019-04-16T17:08:22.773Z,35.68
2019-04-16T17:09:22.788Z,35.39
2019-04-16T17:10:22.760Z,35.96
2019-04-16T17:11:22.754Z,35.39
2019-04-16T17:12:22.744Z,35.49
2019-04-16T17:13:23.649Z,35.58
2019-04-16T17:14:22.732Z,35.39
2019-04-16T17:15:22.724Z,35.28
2019-04-16T17:16:22.722Z,36.04
2019-04-16T17:17:22.709Z,35.86
2019-04-16T17:18:22.703Z,36.04
2019-04-16T17:19:22.699Z,36.04
2019-04-16T17:20:22.736Z,35.85
2019-04-16T17:21:22.681Z,35.85
2019-04-16T17:22:22.682Z,35.94
2019-04-16T17:23:25.543Z,35.85
2019-04-16T17:24:22.668Z,36.04
2019-04-16T17:25:37.844Z,35.94
2019-04-16T17:26:22.654Z,35.94
2019-04-16T17:27:22.664Z,35.18
2019-04-16T17:28:22.631Z,35.85
2019-04-16T17:29:22.622Z,36.04
2019-04-16T17:30:22.613Z,35.57
2019-04-16T17:31:22.655Z,36.04
2019-04-16T17:32:22.687Z,35.94
2019-04-16T17:33:22.591Z,35.66
2019-04-16T17:34:22.342Z,35.47
2019-04-16T17:35:22.580Z,35.47
2019-04-16T17:36:22.578Z,35.75
2019-04-16T17:37:27.769Z,35.64
2019-04-16T17:38:22.560Z,35.93
2019-04-16T17:39:22.547Z,36.21
2019-04-16T17:40:22.539Z,36.31
2019-04-16T17:41:22.531Z,36.5
2019-04-16T17:42:22.533Z,36.5
2019-04-16T17:43:22.532Z,36.69
2019-04-16T17:44:22.516Z,36.79
2019-04-16T17:45:22.503Z,36.5
2019-04-16T17:46:24.664Z,36.6
2019-04-16T17:47:34.865Z,36.41
2019-04-16T17:48:23.451Z,36.69
2019-04-16T17:49:22.472Z,36.5
2019-04-16T17:50:22.473Z,36.58
2019-04-16T17:51:22.457Z,36.87
2019-04-16T17:52:22.449Z,36.96
2019-04-16T17:53:22.443Z,36.77
2019-04-16T17:54:22.440Z,36.96
2019-04-16T17:55:22.428Z,36.87
2019-04-16T17:56:22.421Z,36.87
2019-04-16T17:57:28.773Z,36.87
2019-04-16T17:58:24.118Z,37.05
2019-04-16T17:59:22.393Z,37.05
2019-04-16T18:00:22.383Z,37.05
2019-04-16T18:01:22.377Z,37.24
2019-04-16T18:02:24.997Z,37.24
2019-04-16T18:03:22.360Z,37.42
2019-04-16T18:04:22.353Z,37.61
2019-04-16T18:05:26.056Z,37.8
2019-04-16T18:06:22.337Z,37.71
2019-04-16T18:07:22.328Z,37.61
2019-04-16T18:08:22.321Z,37.99
2019-04-16T18:09:22.312Z,37.9
2019-04-16T18:10:26.764Z,37.9
2019-04-16T18:11:22.306Z,38.18
2019-04-16T18:12:23.119Z,38.28
2019-04-16T18:13:22.277Z,38.09
2019-04-16T18:14:22.269Z,38.47
2019-04-16T18:15:22.327Z,38.35
2019-04-16T18:16:23.120Z,38.83
2019-04-16T18:17:26.478Z,38.54
2019-04-16T18:18:22.296Z,38.26
2019-04-16T18:19:24.802Z,39.22
2019-04-16T18:20:22.294Z,38.73
2019-04-16T18:21:22.215Z,38.54
2019-04-16T18:22:22.204Z,39.31
2019-04-16T18:23:22.196Z,39.31
2019-04-16T18:24:22.192Z,39.22
2019-04-16T18:25:23.769Z,39.4
2019-04-16T18:26:22.167Z,39.4
2019-04-16T18:27:22.163Z,39.4
2019-04-16T18:28:22.148Z,39.39
2019-04-16T18:29:22.142Z,39.48
2019-04-16T18:30:22.134Z,39.67
2019-04-16T18:31:25.827Z,39.67
2019-04-16T18:32:23.703Z,39.86
2019-04-16T18:33:22.110Z,39.86
2019-04-16T18:34:22.098Z,39.76
2019-04-16T18:35:22.092Z,39.67
2019-04-16T18:36:22.078Z,39.58
2019-04-16T18:37:22.071Z,39.67
2019-04-16T18:38:24.651Z,39.95
2019-04-16T18:39:22.054Z,40.15
2019-04-16T18:40:22.044Z,40.34
2019-04-16T18:41:22.034Z,40.53
2019-04-16T18:42:22.025Z,40.63
2019-04-16T18:43:22.018Z,40.44
2019-04-16T18:44:22.013Z,40.53
2019-04-16T18:45:21.998Z,40.44
2019-04-16T18:46:21.986Z,40.63
2019-04-16T18:47:21.979Z,40.72
2019-04-16T18:48:21.972Z,40.53
2019-04-16T18:49:21.962Z,40.72
2019-04-16T18:50:28.031Z,40.44
2019-04-16T18:51:23.907Z,40.72
2019-04-16T18:52:21.935Z,40.7
2019-04-16T18:53:21.921Z,40.8
2019-04-16T18:54:21.915Z,40.6
2019-04-16T18:55:21.917Z,40.8
2019-04-16T18:56:21.897Z,40.8
2019-04-16T18:57:21.886Z,41.08
2019-04-16T18:58:21.918Z,40.99
2019-04-16T18:59:21.871Z,41.08
2019-04-16T19:00:21.863Z,41.46
2019-04-16T19:01:24.742Z,41.36
2019-04-16T19:02:21.854Z,41.65
2019-04-16T19:03:21.828Z,41.75
2019-04-16T19:04:21.823Z,41.65
2019-04-16T19:05:21.572Z,41.27
2019-04-16T19:06:21.802Z,42.22
2019-04-16T19:07:21.795Z,41.65
2019-04-16T19:08:21.784Z,41.84
2019-04-16T19:09:23.451Z,42.32
2019-04-16T19:10:21.767Z,42.03
2019-04-16T19:11:23.036Z,41.94
2019-04-16T19:12:21.746Z,42.01
2019-04-16T19:13:22.537Z,42.77
2019-04-16T19:14:21.726Z,42.4
2019-04-16T19:15:21.715Z,42.7
2019-04-16T19:16:21.715Z,42.49
2019-04-16T19:17:21.696Z,42.68
2019-04-16T19:18:22.744Z,42.68
2019-04-16T19:19:24.606Z,42.87
2019-04-16T19:20:21.669Z,43.16
2019-04-16T19:21:21.660Z,43.06
2019-04-16T19:22:21.650Z,43.25
2019-04-16T19:23:24.414Z,43.44
2019-04-16T19:24:21.647Z,43.35
2019-04-16T19:25:21.616Z,43.73
2019-04-16T19:26:21.611Z,43.73
2019-04-16T19:27:21.598Z,43.73
2019-04-16T19:28:22.637Z,43.82
2019-04-16T19:29:21.579Z,43.91
2019-04-16T19:30:25.129Z,43.91
2019-04-16T19:31:25.369Z,44.11
2019-04-16T19:32:21.552Z,44.09
2019-04-16T19:33:21.545Z,44.39
2019-04-16T19:34:21.530Z,44.49
2019-04-16T19:35:24.825Z,44.46
2019-04-16T19:36:27.439Z,44.68
2019-04-16T19:37:21.500Z,44.56
2019-04-16T19:38:21.492Z,44.68
2019-04-16T19:39:21.479Z,44.49
2019-04-16T19:40:22.002Z,44.87
2019-04-16T19:41:25.831Z,44.56
2019-04-16T19:42:21.539Z,44.46
2019-04-16T19:43:21.438Z,44.75
2019-04-16T19:44:21.433Z,44.85
2019-04-16T19:45:21.420Z,44.66
2019-04-16T19:46:21.410Z,44.59
2019-04-16T19:47:23.260Z,44.75
2019-04-16T19:48:36.968Z,44.56
2019-04-16T19:49:21.376Z,44.75
2019-04-16T19:50:21.368Z,44.94
2019-04-16T19:51:22.248Z,44.75
2019-04-16T19:52:21.351Z,44.75
2019-04-16T19:53:21.340Z,44.85
2019-04-16T19:54:21.326Z,44.75
2019-04-16T19:55:21.322Z,44.85
2019-04-16T19:56:22.033Z,44.94
2019-04-16T19:57:21.299Z,44.75
2019-04-16T19:58:21.288Z,44.75
2019-04-16T19:59:21.366Z,44.85
2019-04-16T20:00:25.462Z,44.85
2019-04-16T20:01:21.313Z,44.75
2019-04-16T20:02:21.249Z,44.85
2019-04-16T20:03:21.239Z,44.94
2019-04-16T20:04:21.227Z,44.85
2019-04-16T20:05:21.804Z,44.85
2019-04-16T20:06:24.917Z,44.94
2019-04-16T20:07:21.194Z,44.94
2019-04-16T20:08:21.186Z,44.75
2019-04-16T20:09:21.174Z,45.04
2019-04-16T20:10:21.167Z,44.85
2019-04-16T20:11:23.962Z,44.94
2019-04-16T20:12:21.146Z,44.85
2019-04-16T20:13:21.134Z,44.85
2019-04-16T20:14:21.131Z,44.85
2019-04-16T20:15:21.119Z,45.04
2019-04-16T20:16:21.107Z,45.04
2019-04-16T20:17:21.099Z,45.32
2019-04-16T20:18:21.102Z,45.32
2019-04-16T20:19:21.070Z,45.14
2019-04-16T20:20:21.063Z,45.23
2019-04-16T20:21:21.050Z,45.23
2019-04-16T20:22:21.042Z,45.8
2019-04-16T20:23:21.038Z,45.23
2019-04-16T20:24:21.026Z,45.61
2019-04-16T20:25:21.009Z,45.32
2019-04-16T20:26:20.999Z,45.42
2019-04-16T20:27:22.148Z,45.61
2019-04-16T20:28:20.977Z,45.23
2019-04-16T20:29:20.968Z,45.51
2019-04-16T20:30:25.820Z,45.49
2019-04-16T20:31:20.948Z,45.78
2019-04-16T20:32:20.941Z,45.68
2019-04-16T20:33:20.928Z,45.61
2019-04-16T20:34:20.916Z,45.7
2019-04-16T20:35:21.546Z,45.8